createdAt,value
2022-09-15T00:00:57.183Z,5.70
2022-09-15T00:03:49.231Z,6.85
2022-09-15T00:06:38.180Z,6.37
2022-09-15T00:09:26.730Z,5.87
2022-09-15T00:12:16.509Z,6.07
2022-09-15T00:15:07.284Z,6.23
2022-09-15T00:17:56.067Z,6.97
2022-09-15T00:20:46.050Z,6.50
2022-09-15T00:23:34.194Z,6.30
2022-09-15T00:26:25.406Z,6.70
2022-09-15T00:29:13.750Z,5.90
2022-09-15T00:32:02.915Z,5.63
2022-09-15T00:34:53.015Z,6.10
2022-09-15T00:37:41.858Z,5.77
2022-09-15T00:40:30.874Z,5.93
2022-09-15T00:43:22.032Z,5.93
2022-09-15T00:46:11.651Z,5.93
2022-09-15T00:49:04.814Z,6.20
2022-09-15T00:51:59.119Z,6.13
2022-09-15T00:54:58.091Z,5.87
2022-09-15T00:57:49.468Z,6.20
2022-09-15T01:00:41.734Z,5.70
2022-09-15T01:03:33.016Z,6.03
2022-09-15T01:06:27.311Z,5.87
2022-09-15T01:09:19.224Z,5.50
2022-09-15T01:14:59.854Z,6.03
2022-09-15T01:18:04.017Z,5.58
2022-09-15T01:21:10.598Z,5.60
2022-09-15T01:24:29.871Z,5.83
2022-09-15T01:27:42.541Z,6.50
2022-09-15T01:30:35.388Z,5.43
2022-09-15T01:33:35.865Z,5.53
2022-09-15T01:36:29.725Z,4.90
2022-09-15T01:39:21.366Z,5.03
2022-09-15T01:42:13.825Z,5.15
2022-09-15T01:45:07.481Z,4.85
2022-09-15T01:47:57.797Z,4.30
2022-09-15T01:50:52.094Z,4.37
2022-09-15T01:53:41.601Z,4.57
2022-09-15T01:56:31.713Z,4.43
2022-09-15T01:59:20.466Z,4.47
2022-09-15T02:02:14.327Z,5.27
2022-09-15T02:05:06.576Z,4.67
2022-09-15T02:08:04.690Z,5.37
2022-09-15T02:11:01.292Z,4.50
2022-09-15T02:14:00.108Z,4.80
2022-09-15T02:16:52.753Z,4.70
2022-09-15T02:19:45.551Z,4.73
2022-09-15T02:22:37.389Z,4.63
2022-09-15T02:25:38.651Z,4.75
2022-09-15T02:28:33.092Z,6.77
2022-09-15T02:31:24.983Z,7.27
2022-09-15T02:34:18.493Z,10.03
2022-09-15T02:37:09.442Z,7.77
2022-09-15T02:40:00.366Z,6.60
2022-09-15T02:42:56.289Z,5.40
2022-09-15T02:45:45.813Z,5.43
2022-09-15T02:48:35.644Z,5.00
2022-09-15T02:51:24.294Z,5.03
2022-09-15T02:54:13.034Z,5.23
2022-09-15T02:57:02.608Z,4.97
2022-09-15T03:00:09.589Z,4.60
2022-09-15T03:02:58.348Z,4.10
2022-09-15T03:05:46.690Z,4.15
2022-09-15T03:08:35.857Z,4.80
2022-09-15T03:11:26.644Z,4.27
2022-09-15T03:14:15.616Z,4.47
2022-09-15T03:17:05.601Z,4.37
2022-09-15T03:19:53.740Z,4.23
2022-09-15T03:22:42.085Z,3.47
2022-09-15T03:25:32.481Z,4.07
2022-09-15T03:28:21.444Z,3.67
2022-09-15T03:31:11.286Z,4.20
2022-09-15T03:34:00.793Z,4.77
2022-09-15T03:36:49.550Z,4.33
2022-09-15T03:39:38.507Z,4.40
2022-09-15T03:42:27.059Z,4.50
2022-09-15T03:45:16.837Z,4.20
2022-09-15T03:48:06.002Z,4.97
2022-09-15T03:50:54.963Z,5.43
2022-09-15T03:53:43.921Z,4.57
2022-09-15T03:56:33.269Z,4.73
2022-09-15T03:59:22.660Z,4.87
2022-09-15T04:02:11.667Z,4.67
2022-09-15T04:05:00.198Z,5.00
2022-09-15T04:07:50.152Z,4.57
2022-09-15T04:10:40.656Z,4.40
2022-09-15T04:13:29.302Z,5.00
2022-09-15T04:16:20.175Z,5.37
2022-09-15T04:19:09.064Z,5.13
2022-09-15T04:21:57.602Z,5.47
2022-09-15T04:24:47.525Z,4.90
2022-09-15T04:27:37.584Z,5.53
2022-09-15T04:30:25.932Z,5.07
2022-09-15T04:33:14.684Z,4.73
2022-09-15T04:36:09.014Z,5.40
2022-09-15T04:38:58.338Z,5.93
2022-09-15T04:41:47.503Z,5.40
2022-09-15T04:44:36.874Z,5.40
2022-09-15T04:47:27.062Z,6.00
2022-09-15T04:50:15.917Z,5.30
2022-09-15T04:53:04.160Z,4.77
2022-09-15T04:55:53.536Z,5.03
2022-09-15T04:58:43.848Z,5.07
2022-09-15T05:01:34.794Z,5.53
2022-09-15T05:04:23.685Z,4.70
2022-09-15T05:07:12.445Z,5.20
2022-09-15T05:10:01.167Z,5.23
2022-09-15T05:12:50.363Z,5.30
2022-09-15T05:15:39.935Z,6.00
2022-09-15T05:18:29.509Z,5.03
2022-09-15T05:21:20.516Z,6.00
2022-09-15T05:24:10.498Z,5.70
2022-09-15T05:26:58.848Z,5.27
2022-09-15T05:29:49.247Z,4.87
2022-09-15T05:32:37.586Z,4.50
2022-09-15T05:35:25.959Z,4.43
2022-09-15T05:38:15.255Z,4.23
2022-09-15T05:41:06.886Z,4.20
2022-09-15T05:43:58.505Z,3.87
2022-09-15T05:46:47.596Z,3.47
2022-09-15T05:49:36.464Z,3.87
2022-09-15T05:52:25.014Z,3.83
2022-09-15T05:55:13.773Z,3.73
2022-09-15T05:58:04.574Z,3.80
2022-09-15T06:00:53.765Z,3.90
2022-09-15T06:03:42.971Z,3.87
2022-09-15T06:06:32.892Z,5.20
2022-09-15T06:09:21.028Z,5.17
2022-09-15T06:12:09.990Z,4.53
2022-09-15T06:14:59.360Z,3.87
2022-09-15T06:17:48.523Z,3.93
2022-09-15T06:20:37.893Z,3.97
2022-09-15T06:23:27.059Z,4.70
2022-09-15T06:26:18.070Z,5.40
2022-09-15T06:29:08.262Z,4.60
2022-09-15T06:32:02.189Z,4.80
2022-09-15T06:34:50.478Z,4.73
2022-09-15T06:37:40.283Z,4.53
2022-09-15T06:40:30.240Z,4.70
2022-09-15T06:43:20.429Z,4.30
2022-09-15T06:46:10.067Z,4.43
2022-09-15T06:48:58.960Z,3.83
2022-09-15T06:51:48.092Z,4.00
2022-09-15T06:54:36.887Z,4.77
2022-09-15T06:57:25.435Z,3.90
2022-09-15T07:00:15.855Z,4.10
2022-09-15T07:03:04.744Z,3.97
2022-09-15T07:05:54.165Z,3.83
2022-09-15T07:08:42.781Z,3.87
2022-09-15T07:11:32.282Z,3.47
2022-09-15T07:14:20.829Z,3.10
2022-09-15T07:17:10.205Z,3.77
2022-09-15T07:20:00.169Z,4.23
2022-09-15T07:22:48.935Z,4.33
2022-09-15T07:25:37.286Z,4.57
2022-09-15T07:28:25.429Z,4.20
2022-09-15T07:31:17.399Z,4.37
2022-09-15T07:34:07.477Z,3.97
2022-09-15T07:36:56.204Z,3.80
2022-09-15T07:39:44.978Z,4.30
2022-09-15T07:42:36.032Z,4.13
2022-09-15T07:45:24.556Z,4.27
2022-09-15T07:48:13.439Z,3.90
2022-09-15T07:51:02.234Z,3.80
2022-09-15T07:53:51.983Z,3.77
2022-09-15T07:56:40.764Z,3.23
2022-09-15T07:59:28.901Z,3.40
2022-09-15T08:02:19.075Z,3.70
2022-09-15T08:05:09.926Z,3.43
2022-09-15T08:07:59.268Z,4.27
2022-09-15T08:10:47.818Z,3.77
2022-09-15T08:13:37.615Z,3.53
2022-09-15T08:16:27.822Z,3.08
2022-09-15T08:19:16.948Z,3.60
2022-09-15T08:22:07.140Z,3.60
2022-09-15T08:24:55.894Z,3.20
2022-09-15T08:27:44.870Z,3.20
2022-09-15T08:30:33.814Z,3.27
2022-09-15T08:33:21.890Z,3.57
2022-09-15T08:36:11.529Z,2.90
2022-09-15T08:39:00.282Z,3.70
2022-09-15T08:41:51.462Z,2.30
2022-09-15T08:44:49.264Z,2.87
2022-09-15T08:47:41.443Z,2.70
2022-09-15T08:53:22.630Z,2.87
2022-09-15T08:56:16.608Z,2.80
2022-09-15T08:59:05.330Z,2.80
2022-09-15T09:02:17.303Z,3.17
2022-09-15T09:05:29.051Z,2.60
2022-09-15T09:08:41.493Z,2.67
2022-09-15T09:11:43.518Z,3.10
2022-09-15T09:14:42.832Z,3.20
2022-09-15T09:17:48.063Z,2.90
2022-09-15T09:20:58.171Z,2.87
2022-09-15T09:23:50.683Z,2.37
2022-09-15T09:26:39.917Z,3.00
2022-09-15T09:29:33.129Z,3.30
2022-09-15T09:32:26.203Z,3.30
2022-09-15T09:35:21.062Z,3.20
2022-09-15T09:38:10.823Z,2.30
2022-09-15T09:41:02.265Z,3.03
2022-09-15T09:43:54.729Z,2.63
2022-09-15T09:46:43.933Z,2.40
2022-09-15T09:49:35.829Z,2.10
2022-09-15T09:52:36.176Z,2.40
2022-09-15T09:55:27.610Z,2.77
2022-09-15T09:58:20.847Z,2.73
2022-09-15T10:01:13.516Z,2.23
2022-09-15T10:04:19.309Z,2.10
2022-09-15T10:07:09.038Z,2.70
2022-09-15T10:09:59.803Z,2.17
2022-09-15T10:12:50.392Z,2.12
2022-09-15T10:15:41.403Z,2.40
2022-09-15T10:18:33.678Z,2.12
2022-09-15T10:21:24.722Z,2.33
2022-09-15T10:24:33.942Z,2.63
2022-09-15T10:27:29.596Z,1.80
2022-09-15T10:30:21.559Z,2.23
2022-09-15T10:33:23.927Z,2.40
2022-09-15T10:36:17.139Z,2.57
2022-09-15T10:39:18.062Z,2.60
2022-09-15T10:42:16.807Z,2.60
2022-09-15T10:45:32.631Z,2.63
2022-09-15T10:48:38.803Z,1.97
2022-09-15T10:51:40.864Z,2.20
2022-09-15T10:55:00.495Z,2.17
2022-09-15T10:58:02.623Z,1.90
2022-09-15T11:01:02.273Z,2.07
2022-09-15T11:04:17.814Z,2.07
2022-09-15T11:07:16.148Z,1.90
2022-09-15T11:10:16.518Z,2.60
2022-09-15T11:13:12.489Z,2.47
2022-09-15T11:16:13.250Z,2.50
2022-09-15T11:19:17.503Z,2.67
2022-09-15T11:22:13.211Z,2.50
2022-09-15T11:25:05.048Z,2.50
2022-09-15T11:27:58.924Z,2.53
2022-09-15T11:30:56.745Z,2.83
2022-09-15T11:33:52.060Z,2.47
2022-09-15T11:36:47.279Z,3.03
2022-09-15T11:39:41.526Z,2.00
2022-09-15T11:42:39.569Z,2.40
2022-09-15T11:45:35.458Z,2.10
2022-09-15T11:48:31.839Z,1.95
2022-09-15T11:51:23.355Z,2.13
2022-09-15T11:54:19.782Z,2.17
2022-09-15T11:57:17.549Z,2.00
2022-09-15T12:00:13.235Z,2.30
2022-09-15T12:03:26.598Z,3.07
2022-09-15T12:06:19.169Z,2.87
2022-09-15T12:09:12.231Z,2.43
2022-09-15T12:12:07.202Z,2.30
2022-09-15T12:14:58.091Z,2.20
2022-09-15T12:20:43.437Z,2.33
2022-09-15T12:23:34.306Z,2.30
2022-09-15T12:26:25.571Z,2.13
2022-09-15T12:29:41.134Z,2.10
2022-09-15T12:32:32.656Z,1.90
2022-09-15T12:35:33.568Z,2.67
2022-09-15T12:38:24.368Z,2.37
2022-09-15T12:41:13.739Z,2.30
2022-09-15T12:44:14.976Z,2.10
2022-09-15T12:47:07.017Z,2.57
2022-09-15T12:50:00.496Z,2.40
2022-09-15T12:52:52.973Z,2.10
2022-09-15T12:55:51.883Z,2.40
2022-09-15T12:58:45.082Z,2.20
2022-09-15T13:01:49.167Z,1.90
2022-09-15T13:04:54.651Z,2.60
2022-09-15T13:08:00.196Z,2.20
2022-09-15T13:11:03.405Z,2.07
2022-09-15T13:13:57.941Z,2.03
2022-09-15T13:16:55.118Z,2.00
2022-09-15T13:19:47.197Z,2.13
2022-09-15T13:22:39.736Z,2.20
2022-09-15T13:25:31.182Z,2.23
2022-09-15T13:28:20.559Z,2.30
2022-09-15T13:31:40.916Z,2.77
2022-09-15T13:35:08.484Z,2.37
2022-09-15T13:38:27.642Z,2.37
2022-09-15T13:41:49.028Z,2.17
2022-09-15T13:45:22.310Z,2.20
2022-09-15T13:48:37.727Z,2.87
2022-09-15T13:51:31.193Z,2.63
2022-09-15T13:54:20.897Z,2.57
2022-09-15T13:57:10.141Z,2.17
2022-09-15T13:59:58.488Z,2.07
2022-09-15T14:02:50.838Z,3.37
2022-09-15T14:05:40.297Z,2.33
2022-09-15T14:08:33.101Z,1.97
2022-09-15T14:11:28.420Z,2.60
2022-09-15T14:14:38.936Z,2.60
2022-09-15T14:17:29.319Z,2.33
2022-09-15T14:20:27.698Z,2.83
2022-09-15T14:23:18.504Z,2.20
2022-09-15T14:29:04.046Z,2.20
2022-09-15T14:34:42.005Z,2.10
2022-09-15T14:37:32.316Z,2.10
2022-09-15T14:40:25.494Z,2.17
2022-09-15T14:43:28.074Z,2.80
2022-09-15T14:46:18.497Z,2.20
2022-09-15T14:49:14.508Z,2.80
2022-09-15T14:52:04.711Z,2.20
2022-09-15T14:54:59.457Z,2.22
2022-09-15T14:57:55.531Z,2.50
2022-09-15T15:00:55.239Z,3.07
2022-09-15T15:03:49.816Z,2.40
2022-09-15T15:06:45.189Z,2.13
2022-09-15T15:09:38.343Z,2.43
2022-09-15T15:12:30.666Z,1.80
2022-09-15T15:15:21.549Z,2.37
2022-09-15T15:18:38.731Z,2.20
2022-09-15T15:21:40.101Z,2.10
2022-09-15T15:24:29.757Z,2.27
2022-09-15T15:27:43.504Z,2.67
2022-09-15T15:30:44.131Z,2.60
2022-09-15T15:33:33.299Z,1.92
2022-09-15T15:36:24.076Z,2.13
2022-09-15T15:39:24.721Z,2.10
2022-09-15T15:42:16.766Z,2.40
2022-09-15T15:45:20.932Z,2.27
2022-09-15T15:48:11.277Z,1.90
2022-09-15T15:51:00.106Z,1.73
2022-09-15T15:53:50.439Z,2.08
2022-09-15T15:56:40.204Z,2.40
2022-09-15T15:59:28.960Z,2.40
2022-09-15T16:02:17.983Z,2.13
2022-09-15T16:05:09.552Z,2.10
2022-09-15T16:08:02.762Z,2.27
2022-09-15T16:10:53.635Z,2.70
2022-09-15T16:13:42.846Z,2.37
2022-09-15T16:16:32.628Z,2.83
2022-09-15T16:19:21.512Z,2.77
2022-09-15T16:22:15.526Z,2.13
2022-09-15T16:25:13.300Z,2.80
2022-09-15T16:28:04.101Z,2.70
2022-09-15T16:30:52.520Z,2.23
2022-09-15T16:33:43.831Z,2.60
2022-09-15T16:36:35.747Z,2.57
2022-09-15T16:42:12.447Z,2.27
2022-09-15T16:45:02.635Z,3.00
2022-09-15T16:47:51.390Z,2.87
2022-09-15T16:50:50.533Z,2.57
2022-09-15T16:53:51.639Z,3.00
2022-09-15T16:56:40.802Z,3.60
2022-09-15T16:59:29.352Z,2.90
2022-09-15T17:02:18.602Z,3.40
2022-09-15T17:05:28.370Z,3.47
2022-09-15T17:08:19.587Z,3.23
2022-09-15T17:11:16.429Z,3.00
2022-09-15T17:14:05.896Z,2.77
2022-09-15T17:16:54.859Z,4.00
2022-09-15T17:19:43.850Z,4.07
2022-09-15T17:22:32.166Z,6.70
2022-09-15T17:25:37.405Z,4.93
2022-09-15T17:28:28.414Z,4.50
2022-09-15T17:31:19.180Z,4.40
2022-09-15T17:34:13.139Z,5.20
2022-09-15T17:37:01.337Z,5.30
2022-09-15T17:39:56.856Z,5.80
2022-09-15T17:42:48.679Z,6.10
2022-09-15T17:45:39.276Z,5.30
2022-09-15T17:48:28.235Z,4.85
2022-09-15T17:51:17.889Z,5.13
2022-09-15T17:54:08.817Z,3.37
2022-09-15T17:56:57.782Z,3.30
2022-09-15T17:59:46.536Z,3.50
2022-09-15T18:02:36.072Z,3.43
2022-09-15T18:05:27.389Z,4.67
2022-09-15T18:08:16.691Z,3.87
2022-09-15T18:11:07.089Z,4.30
2022-09-15T18:13:58.504Z,4.12
2022-09-15T18:16:48.503Z,3.67
2022-09-15T18:19:37.857Z,3.60
2022-09-15T18:22:26.821Z,3.70
2022-09-15T18:25:23.133Z,3.40
2022-09-15T18:28:12.318Z,3.67
2022-09-15T18:31:00.892Z,4.80
2022-09-15T18:33:50.034Z,4.23
2022-09-15T18:36:39.949Z,4.63
2022-09-15T18:39:29.183Z,4.73
2022-09-15T18:42:18.142Z,4.73
2022-09-15T18:45:10.214Z,4.50
2022-09-15T18:47:59.338Z,3.50
2022-09-15T18:50:47.482Z,3.57
2022-09-15T18:53:38.288Z,3.50
2022-09-15T18:56:26.837Z,3.33
2022-09-15T18:59:17.847Z,3.33
2022-09-15T19:02:11.433Z,3.10
2022-09-15T19:07:47.590Z,4.17
2022-09-15T19:10:37.921Z,3.10
2022-09-15T19:13:28.276Z,3.37
2022-09-15T19:16:20.175Z,3.03
2022-09-15T19:19:11.839Z,2.97
2022-09-15T19:22:02.224Z,3.20
2022-09-15T19:24:51.387Z,3.10
2022-09-15T19:27:41.786Z,2.70
2022-09-15T19:30:31.414Z,3.30
2022-09-15T19:33:20.522Z,2.83
2022-09-15T19:36:27.304Z,3.03
2022-09-15T19:39:17.080Z,3.43
2022-09-15T19:42:06.888Z,2.80
2022-09-15T19:44:55.410Z,2.70
2022-09-15T19:47:43.908Z,2.73
2022-09-15T19:50:33.123Z,2.83
2022-09-15T19:53:22.904Z,3.13
2022-09-15T19:56:16.704Z,2.33
2022-09-15T19:59:06.911Z,2.50
2022-09-15T20:01:55.372Z,2.80
2022-09-15T20:04:44.889Z,2.40
2022-09-15T20:07:33.445Z,2.60
2022-09-15T20:10:22.604Z,2.37
2022-09-15T20:13:11.772Z,2.37
2022-09-15T20:16:03.101Z,2.67
2022-09-15T20:18:53.368Z,2.92
2022-09-15T20:21:51.492Z,2.87
2022-09-15T20:24:41.160Z,2.43
2022-09-15T20:27:30.724Z,2.63
2022-09-15T20:30:19.658Z,2.30
2022-09-15T20:33:08.148Z,3.10
2022-09-15T20:36:03.520Z,2.30
2022-09-15T20:38:53.843Z,2.50
2022-09-15T20:41:44.719Z,3.17
2022-09-15T20:44:33.474Z,3.10
2022-09-15T20:47:21.818Z,3.43
2022-09-15T20:50:11.320Z,3.50
2022-09-15T20:52:59.535Z,3.30
2022-09-15T20:55:51.978Z,3.37
2022-09-15T20:58:41.557Z,3.37
2022-09-15T21:01:34.095Z,2.57
2022-09-15T21:04:22.752Z,3.23
2022-09-15T21:07:11.708Z,2.47
2022-09-15T21:10:00.263Z,2.63
2022-09-15T21:12:49.221Z,2.83
2022-09-15T21:15:38.181Z,3.20
2022-09-15T21:18:28.780Z,3.20
2022-09-15T21:21:21.126Z,3.33
2022-09-15T21:24:10.545Z,3.10
2022-09-15T21:27:17.368Z,3.20
2022-09-15T21:30:09.591Z,3.30
2022-09-15T21:32:57.747Z,2.73
2022-09-15T21:35:48.755Z,3.20
2022-09-15T21:38:38.492Z,3.13
2022-09-15T21:41:29.249Z,3.47
2022-09-15T21:44:18.092Z,3.60
2022-09-15T21:47:07.461Z,3.10
2022-09-15T21:49:56.835Z,2.83
2022-09-15T21:52:45.179Z,2.77
2022-09-15T21:55:37.016Z,3.40
2022-09-15T21:58:26.518Z,2.80
2022-09-15T22:01:18.167Z,3.17
2022-09-15T22:04:08.413Z,2.80
2022-09-15T22:06:57.350Z,2.80
2022-09-15T22:09:46.935Z,3.00
2022-09-15T22:12:36.091Z,2.90
2022-09-15T22:15:25.661Z,3.03
2022-09-15T22:18:14.421Z,3.10
2022-09-15T22:21:08.923Z,2.90
2022-09-15T22:23:58.891Z,3.20
2022-09-15T22:26:47.445Z,2.70
2022-09-15T22:29:36.382Z,3.30
2022-09-15T22:32:25.940Z,2.60
2022-09-15T22:35:14.122Z,3.20
2022-09-15T22:38:03.488Z,3.20
2022-09-15T22:40:52.042Z,3.07
2022-09-15T22:43:42.433Z,3.33
2022-09-15T22:46:31.800Z,2.80
2022-09-15T22:49:20.766Z,3.20
2022-09-15T22:52:09.110Z,2.90
2022-09-15T22:54:57.659Z,3.37
2022-09-15T22:57:48.238Z,3.87
2022-09-15T23:00:39.311Z,3.17
2022-09-15T23:03:28.024Z,3.22
2022-09-15T23:06:18.002Z,3.00
2022-09-15T23:09:10.852Z,3.40
2022-09-15T23:11:59.203Z,3.87
2022-09-15T23:14:48.572Z,2.90
2022-09-15T23:17:38.558Z,3.63
2022-09-15T23:20:27.311Z,3.97
2022-09-15T23:23:17.295Z,2.80
2022-09-15T23:26:09.356Z,3.47
2022-09-15T23:28:58.290Z,3.27
2022-09-15T23:31:47.920Z,3.20
2022-09-15T23:34:36.649Z,3.07
2022-09-15T23:37:25.781Z,3.40
2022-09-15T23:40:14.815Z,3.60
2022-09-15T23:43:03.499Z,3.73
2022-09-15T23:45:53.281Z,4.30
2022-09-15T23:48:42.445Z,3.40
2022-09-15T23:51:31.436Z,3.90
2022-09-15T23:54:19.749Z,3.63
2022-09-15T23:57:10.556Z,3.50
2022-09-15T23:59:59.103Z,3.70
